Time;durP1;ratioP1;P1;durP2;ratioP2;P2;SDS_P1;SDS_P2;PMS_P1;PMS_P2;Temp;Humidity;BMP_temperature;BMP_pressure;BME280_temperature;BME280_humidity;BME280_pressure;Samples;Min_cycle;Max_cycle;Signal;HPM_P1;HPM_P2
2022/11/11 00:00:53;;;;;;;;;;;24.00;36.10;;;;;;485202;246;1188;-74
2022/11/11 00:02:54;;;;;;;;;;;23.90;36.10;;;;;;485195;242;1243;-74
2022/11/11 00:04:56;;;;;;;;;;;23.90;36.00;;;;;;485174;246;1263;-74
2022/11/11 00:06:57;;;;;;;;;;;23.80;35.90;;;;;;485228;246;2163;-74
2022/11/11 00:08:58;;;;;;;;;;;23.80;36.00;;;;;;485279;246;1161;-74
2022/11/11 00:10:59;;;;;;;;;;;23.70;35.90;;;;;;485152;246;1168;-74
2022/11/11 00:13:01;;;;;;;;;;;23.80;36.30;;;;;;485225;246;1179;-74
2022/11/11 00:15:02;;;;;;;;;;;23.70;36.10;;;;;;485097;246;1114;-75
2022/11/11 00:26:37;;;;;;;;;;;24.10;37.40;;;;;;458678;256;1272;-74
2022/11/11 00:28:38;;;;;;;;;;;24.20;37.60;;;;;;460360;259;2216;-74
2022/11/11 00:30:39;;;;;;;;;;;24.30;37.10;;;;;;458659;259;1216;-74
2022/11/11 00:32:41;;;;;;;;;;;24.20;37.20;;;;;;460376;259;1241;-74
2022/11/11 00:35:51;;;;;;;;;;;24.10;36.60;;;;;;458676;260;1301;-75
2022/11/11 00:36:43;;;;;;;;;;;24.00;36.80;;;;;;460410;259;1232;-74
2022/11/11 00:38:45;;;;;;;;;;;23.90;36.70;;;;;;458652;259;1279;-74
2022/11/11 00:40:46;;;;;;;;;;;23.90;36.70;;;;;;460455;259;1202;-74
2022/11/11 00:42:47;;;;;;;;;;;23.90;36.70;;;;;;458576;259;1379;-74
2022/11/11 00:44:49;;;;;;;;;;;23.80;36.90;;;;;;460484;259;1352;-74
2022/11/11 00:51:29;;;;;;;;;;;23.70;37.10;;;;;;458651;260;1257;-74
2022/11/11 00:53:31;;;;;;;;;;;23.70;36.70;;;;;;460447;259;1237;-74
2022/11/11 00:55:32;;;;;;;;;;;23.70;36.80;;;;;;458672;259;1598;-74
2022/11/11 00:57:33;;;;;;;;;;;23.80;36.70;;;;;;460413;259;1259;-74
2022/11/11 00:59:35;;;;;;;;;;;23.70;36.50;;;;;;481078;246;1233;-74
2022/11/11 01:01:36;;;;;;;;;;;23.80;36.00;;;;;;485449;246;1335;-74
2022/11/11 01:03:37;;;;;;;;;;;23.80;36.60;;;;;;483082;243;1277;-74
2022/11/11 01:05:39;;;;;;;;;;;23.80;36.30;;;;;;484442;243;1269;-74
2022/11/11 01:07:40;;;;;;;;;;;23.90;36.90;;;;;;483721;242;2160;-74
2022/11/11 01:09:42;;;;;;;;;;;23.80;36.80;;;;;;484066;246;1309;-74
2022/11/11 01:11:43;;;;;;;;;;;23.80;36.20;;;;;;484164;246;1192;-75
2022/11/11 01:13:44;;;;;;;;;;;23.80;36.70;;;;;;484195;246;1158;-74
2022/11/11 01:15:45;;;;;;;;;;;23.80;36.50;;;;;;484245;246;1207;-74
2022/11/11 01:17:47;;;;;;;;;;;23.80;36.30;;;;;;484190;246;1148;-74
2022/11/11 01:19:48;;;;;;;;;;;23.70;36.20;;;;;;484283;246;1332;-74
2022/11/11 01:21:49;;;;;;;;;;;23.80;36.10;;;;;;484199;246;1189;-74
2022/11/11 01:23:51;;;;;;;;;;;23.70;36.70;;;;;;484248;246;1310;-74
2022/11/11 01:25:52;;;;;;;;;;;23.70;36.20;;;;;;484226;246;1200;-74
2022/11/11 01:27:53;;;;;;;;;;;23.80;36.90;;;;;;484184;246;2191;-74
2022/11/11 01:29:55;;;;;;;;;;;23.80;36.20;;;;;;484294;246;1181;-74
2022/11/11 01:31:56;;;;;;;;;;;23.90;36.70;;;;;;484259;246;1169;-74
2022/11/11 01:33:57;;;;;;;;;;;23.90;36.50;;;;;;484253;246;1178;-74
2022/11/11 01:35:59;;;;;;;;;;;24.00;36.20;;;;;;484338;246;1208;-74
2022/11/11 01:38:00;;;;;;;;;;;24.10;36.10;;;;;;484299;246;1116;-74
2022/11/11 01:40:01;;;;;;;;;;;24.10;36.40;;;;;;484202;246;1164;-74
2022/11/11 01:42:03;;;;;;;;;;;24.10;36.00;;;;;;484203;246;1181;-74
2022/11/11 01:44:04;;;;;;;;;;;24.10;36.30;;;;;;484210;246;1113;-74
2022/11/11 01:46:05;;;;;;;;;;;24.10;35.90;;;;;;484216;246;1298;-74
2022/11/11 01:50:26;;;;;;;;;;;24.10;35.90;;;;;;484269;246;1181;-74
2022/11/11 01:52:27;;;;;;;;;;;24.10;36.40;;;;;;484222;246;1211;-74
2022/11/11 01:54:29;;;;;;;;;;;24.10;36.20;;;;;;484253;246;1216;-74
2022/11/11 01:56:30;;;;;;;;;;;23.90;36.00;;;;;;484239;246;1145;-74
2022/11/11 01:58:31;;;;;;;;;;;23.90;36.60;;;;;;484169;246;1209;-74
2022/11/11 02:00:33;;;;;;;;;;;23.80;36.40;;;;;;484305;246;1100;-74
2022/11/11 02:02:34;;;;;;;;;;;23.80;36.40;;;;;;484213;246;1266;-74
2022/11/11 02:06:55;;;;;;;;;;;23.60;37.10;;;;;;484226;246;1147;-74
2022/11/11 02:08:56;;;;;;;;;;;23.70;36.70;;;;;;484264;246;2152;-74
2022/11/11 02:10:57;;;;;;;;;;;23.70;37.10;;;;;;484217;246;1281;-74
2022/11/11 02:15:18;;;;;;;;;;;23.80;36.90;;;;;;484196;243;1398;-74
2022/11/11 02:17:19;;;;;;;;;;;23.90;36.40;;;;;;484221;246;1127;-74
2022/11/11 02:19:20;;;;;;;;;;;23.90;37.00;;;;;;484200;246;1197;-74
2022/11/11 02:21:21;;;;;;;;;;;24.00;36.40;;;;;;484264;246;1408;-74
2022/11/11 02:23:23;;;;;;;;;;;24.10;36.50;;;;;;484232;246;1199;-74
2022/11/11 02:25:24;;;;;;;;;;;24.10;36.30;;;;;;484185;243;1196;-74
2022/11/11 02:27:25;;;;;;;;;;;24.20;36.20;;;;;;484230;246;1238;-74
2022/11/11 02:29:27;;;;;;;;;;;24.20;36.30;;;;;;484149;246;2232;-74
2022/11/11 02:31:28;;;;;;;;;;;24.20;36.30;;;;;;484360;246;1170;-74
2022/11/11 02:33:29;;;;;;;;;;;24.10;36.50;;;;;;484189;246;1199;-74
2022/11/11 02:35:31;;;;;;;;;;;24.10;36.40;;;;;;484236;246;1146;-74
2022/11/11 02:37:32;;;;;;;;;;;24.00;36.80;;;;;;484334;246;1205;-74
2022/11/11 02:39:34;;;;;;;;;;;23.90;36.70;;;;;;484277;246;1205;-74
2022/11/11 02:43:54;;;;;;;;;;;23.70;37.00;;;;;;484225;246;1162;-74
2022/11/11 02:45:56;;;;;;;;;;;23.60;37.30;;;;;;484253;246;1192;-74
2022/11/11 02:47:57;;;;;;;;;;;23.60;37.00;;;;;;484260;246;2199;-74
2022/11/11 02:49:58;;;;;;;;;;;23.50;36.90;;;;;;484172;246;1179;-74
2022/11/11 02:52:00;;;;;;;;;;;23.40;37.30;;;;;;484202;246;1227;-74
2022/11/11 02:54:01;;;;;;;;;;;23.40;37.40;;;;;;484335;246;1130;-74
2022/11/11 02:56:02;;;;;;;;;;;23.40;37.70;;;;;;484110;246;1265;-74
2022/11/11 02:58:04;;;;;;;;;;;23.50;37.00;;;;;;484294;246;1215;-74
2022/11/11 03:00:05;;;;;;;;;;;23.60;37.00;;;;;;484240;246;1249;-74
2022/11/11 03:02:07;;;;;;;;;;;23.70;37.60;;;;;;484205;246;1270;-74
2022/11/11 03:04:08;;;;;;;;;;;23.80;37.40;;;;;;484207;246;1247;-74
2022/11/11 03:06:09;;;;;;;;;;;23.80;36.60;;;;;;484223;246;1327;-74
2022/11/11 03:08:10;;;;;;;;;;;23.80;37.20;;;;;;484129;246;2204;-74
2022/11/11 03:10:12;;;;;;;;;;;23.90;36.50;;;;;;484154;246;1166;-74
2022/11/11 03:12:13;;;;;;;;;;;23.90;36.40;;;;;;484220;246;1152;-74
2022/11/11 03:14:15;;;;;;;;;;;23.90;36.80;;;;;;484221;246;1142;-74
2022/11/11 03:17:38;;;;;;;;;;;23.90;36.20;;;;;;484235;243;1235;-74
2022/11/11 03:18:28;;;;;;;;;;;23.90;36.10;;;;;;482527;246;1223;-74
2022/11/11 03:22:49;;;;;;;;;;;23.90;36.30;;;;;;484173;246;1220;-74
2022/11/11 03:27:10;;;;;;;;;;;23.80;37.10;;;;;;484304;246;1089;-74
2022/11/11 03:29:11;;;;;;;;;;;23.70;36.60;;;;;;484128;246;2156;-74
2022/11/11 03:31:12;;;;;;;;;;;23.70;36.80;;;;;;484211;246;1239;-74
2022/11/11 03:33:14;;;;;;;;;;;23.70;36.60;;;;;;484202;246;1258;-76
2022/11/11 03:35:15;;;;;;;;;;;23.70;37.10;;;;;;484176;246;1108;-74
2022/11/11 03:39:36;;;;;;;;;;;23.80;36.90;;;;;;484195;246;1295;-74
2022/11/11 03:41:37;;;;;;;;;;;23.90;36.40;;;;;;484236;246;1138;-74
2022/11/11 03:43:39;;;;;;;;;;;23.90;36.50;;;;;;484175;246;1170;-74
2022/11/11 03:45:40;;;;;;;;;;;24.00;36.60;;;;;;484228;246;1209;-75
2022/11/11 03:47:41;;;;;;;;;;;24.10;37.00;;;;;;484143;246;1223;-74
2022/11/11 03:49:44;;;;;;;;;;;24.10;36.20;;;;;;484162;246;2129;-74
2022/11/11 03:51:45;;;;;;;;;;;24.10;36.70;;;;;;484231;246;1178;-74
2022/11/11 03:53:47;;;;;;;;;;;24.10;36.00;;;;;;484246;246;1313;-74
2022/11/11 03:55:48;;;;;;;;;;;24.10;36.80;;;;;;484167;246;1165;-74
2022/11/11 03:57:49;;;;;;;;;;;24.10;36.30;;;;;;484208;246;1310;-74
2022/11/11 03:59:51;;;;;;;;;;;23.90;36.30;;;;;;484224;246;1117;-74
2022/11/11 04:11:09;;;;;;;;;;;23.50;37.20;;;;;;484194;246;1172;-74
2022/11/11 04:17:49;;;;;;;;;;;23.60;37.10;;;;;;484129;246;1241;-74
2022/11/11 04:22:09;;;;;;;;;;;23.70;37.00;;;;;;484171;242;1365;-74
2022/11/11 04:26:30;;;;;;;;;;;23.80;36.50;;;;;;484318;242;1146;-74
2022/11/11 04:30:50;;;;;;;;;;;23.90;37.10;;;;;;484184;246;1124;-74
2022/11/11 04:32:52;;;;;;;;;;;24.00;37.20;;;;;;484310;246;1253;-74
2022/11/11 04:34:53;;;;;;;;;;;24.00;36.30;;;;;;484265;246;1128;-74
2022/11/11 04:36:54;;;;;;;;;;;24.00;36.70;;;;;;484217;246;1516;-74
2022/11/11 04:41:15;;;;;;;;;;;24.00;36.40;;;;;;484285;246;1244;-74
2022/11/11 04:43:16;;;;;;;;;;;23.90;36.90;;;;;;484176;246;1386;-74
2022/11/11 04:45:27;;;;;;;;;;;23.80;36.40;;;;;;484170;243;1171;-74
2022/11/11 04:47:28;;;;;;;;;;;23.80;37.00;;;;;;484237;246;1183;-74
2022/11/11 04:49:29;;;;;;;;;;;23.70;37.10;;;;;;484172;242;2217;-74
2022/11/11 04:52:25;;;;;;;;;;;23.70;36.70;;;;;;484167;243;1210;-74
2022/11/11 04:53:32;;;;;;;;;;;23.70;37.00;;;;;;482524;246;1375;-74
2022/11/11 04:57:53;;;;;;;;;;;23.70;36.60;;;;;;484154;246;1342;-74
2022/11/11 04:59:54;;;;;;;;;;;23.80;36.50;;;;;;484202;246;1153;-74
2022/11/11 05:04:15;;;;;;;;;;;23.70;36.40;;;;;;484164;246;1131;-74
2022/11/11 05:10:55;;;;;;;;;;;23.90;37.00;;;;;;484199;246;1504;-73
2022/11/11 05:21:19;;;;;;;;;;;23.80;37.30;;;;;;484150;246;1177;-74
2022/11/11 05:21:56;;;;;;;;;;;23.80;37.30;;;;;;484268;246;1193;-74
2022/11/11 05:26:16;;;;;;;;;;;23.70;37.20;;;;;;484145;246;1161;-74
2022/11/11 05:28:18;;;;;;;;;;;23.70;37.10;;;;;;484106;246;1150;-74
2022/11/11 05:30:19;;;;;;;;;;;23.70;37.10;;;;;;483926;246;2198;-74
2022/11/11 05:32:20;;;;;;;;;;;23.70;37.10;;;;;;483951;246;1206;-74
2022/11/11 05:34:21;;;;;;;;;;;23.70;37.40;;;;;;484090;246;1194;-74
2022/11/11 05:36:23;;;;;;;;;;;23.80;36.60;;;;;;484070;246;1249;-74
2022/11/11 05:38:24;;;;;;;;;;;23.90;37.10;;;;;;483976;246;1225;-74
2022/11/11 05:40:25;;;;;;;;;;;23.90;37.50;;;;;;484069;246;1183;-74
2022/11/11 05:42:27;;;;;;;;;;;24.00;36.70;;;;;;484087;246;1184;-74
2022/11/11 05:44:28;;;;;;;;;;;24.00;37.30;;;;;;484062;246;1130;-74
2022/11/11 05:46:29;;;;;;;;;;;24.10;36.60;;;;;;484174;246;1154;-74
2022/11/11 05:48:31;;;;;;;;;;;24.10;36.30;;;;;;484153;246;1177;-74
2022/11/11 05:50:32;;;;;;;;;;;24.10;36.50;;;;;;484052;246;2195;-74
2022/11/11 05:52:33;;;;;;;;;;;24.00;37.00;;;;;;483994;246;1209;-74
2022/11/11 05:54:35;;;;;;;;;;;24.00;36.60;;;;;;484135;246;1228;-74
2022/11/11 05:56:36;;;;;;;;;;;23.90;37.20;;;;;;484098;246;1181;-74
2022/11/11 05:58:37;;;;;;;;;;;23.90;37.30;;;;;;483950;246;1176;-74
2022/11/11 06:00:39;;;;;;;;;;;23.80;36.90;;;;;;484149;246;1197;-74
2022/11/11 06:02:40;;;;;;;;;;;23.70;37.50;;;;;;484126;246;1214;-74
2022/11/11 06:04:41;;;;;;;;;;;23.60;37.00;;;;;;484147;246;1136;-74
2022/11/11 06:06:43;;;;;;;;;;;23.60;37.00;;;;;;484073;246;1110;-75
2022/11/11 06:08:44;;;;;;;;;;;23.50;37.50;;;;;;484109;246;2191;-74
2022/11/11 06:10:45;;;;;;;;;;;23.50;37.30;;;;;;484181;246;1271;-74
2022/11/11 06:13:04;;;;;;;;;;;23.50;37.40;;;;;;484073;246;1191;-74
2022/11/11 06:15:03;;;;;;;;;;;23.40;38.00;;;;;;484010;246;1314;-74
2022/11/11 06:17:05;;;;;;;;;;;23.40;38.10;;;;;;484115;246;1242;-74
2022/11/11 06:19:06;;;;;;;;;;;23.40;37.50;;;;;;484108;246;1159;-74
2022/11/11 06:21:07;;;;;;;;;;;23.50;37.20;;;;;;483971;243;1221;-74
2022/11/11 06:23:08;;;;;;;;;;;23.60;37.30;;;;;;484065;246;1239;-74
2022/11/11 06:27:36;;;;;;;;;;;23.70;37.10;;;;;;472170;246;1279;-74
2022/11/11 06:29:38;;;;;;;;;;;23.70;36.90;;;;;;484114;246;2200;-74
2022/11/11 06:31:39;;;;;;;;;;;23.80;37.00;;;;;;483999;246;1253;-74
2022/11/11 06:33:41;;;;;;;;;;;23.70;36.70;;;;;;484199;246;1090;-74
2022/11/11 06:35:42;;;;;;;;;;;23.80;36.50;;;;;;484190;246;1170;-74
2022/11/11 06:37:43;;;;;;;;;;;23.70;36.80;;;;;;484237;246;1206;-74
2022/11/11 06:39:45;;;;;;;;;;;23.70;36.60;;;;;;484109;246;1089;-74
2022/11/11 06:41:46;;;;;;;;;;;23.60;37.10;;;;;;484105;246;1234;-74
2022/11/11 06:43:47;;;;;;;;;;;23.70;36.80;;;;;;484186;246;1099;-74
2022/11/11 06:45:49;;;;;;;;;;;23.70;37.20;;;;;;484180;246;1129;-74
2022/11/11 06:47:50;;;;;;;;;;;23.70;36.80;;;;;;484178;246;1081;-74
2022/11/11 06:49:51;;;;;;;;;;;23.60;37.10;;;;;;484087;246;2192;-74
2022/11/11 06:51:53;;;;;;;;;;;23.60;36.70;;;;;;484187;246;1191;-74
2022/11/11 06:53:54;;;;;;;;;;;23.70;36.80;;;;;;484227;246;1162;-74
2022/11/11 06:55:55;;;;;;;;;;;23.70;36.70;;;;;;484092;246;1288;-74
2022/11/11 06:57:57;;;;;;;;;;;23.70;37.10;;;;;;484155;246;1122;-74
2022/11/11 06:59:58;;;;;;;;;;;23.70;36.40;;;;;;484043;246;1183;-74
2022/11/11 07:01:59;;;;;;;;;;;23.70;36.60;;;;;;484084;246;1187;-74
2022/11/11 07:04:00;;;;;;;;;;;23.70;36.70;;;;;;484034;246;1311;-74
2022/11/11 07:06:02;;;;;;;;;;;23.70;36.50;;;;;;483966;246;1198;-74
2022/11/11 07:08:03;;;;;;;;;;;23.80;36.30;;;;;;484100;246;1093;-74
2022/11/11 07:10:06;;;;;;;;;;;23.80;36.60;;;;;;484261;246;2211;-74
2022/11/11 07:12:06;;;;;;;;;;;23.70;36.20;;;;;;484076;246;1188;-74
2022/11/11 07:14:08;;;;;;;;;;;23.70;36.70;;;;;;483974;246;1226;-74
2022/11/11 07:16:10;;;;;;;;;;;23.70;36.10;;;;;;484029;246;1215;-74
2022/11/11 07:18:10;;;;;;;;;;;23.70;36.70;;;;;;484140;242;1412;-74
2022/11/11 07:20:12;;;;;;;;;;;23.60;36.60;;;;;;484015;246;1083;-74
2022/11/11 07:22:13;;;;;;;;;;;23.70;36.70;;;;;;483903;246;1225;-74
2022/11/11 07:24:14;;;;;;;;;;;23.70;36.70;;;;;;483961;246;1108;-74
2022/11/11 07:26:16;;;;;;;;;;;23.70;36.40;;;;;;484022;246;1156;-74
2022/11/11 07:28:17;;;;;;;;;;;23.70;37.00;;;;;;483968;242;1203;-74
2022/11/11 07:30:19;;;;;;;;;;;23.60;36.50;;;;;;484085;246;2196;-74
2022/11/11 07:32:20;;;;;;;;;;;23.60;37.20;;;;;;484027;246;1179;-74
2022/11/11 07:34:21;;;;;;;;;;;23.60;37.10;;;;;;483984;246;1224;-74
2022/11/11 07:36:23;;;;;;;;;;;23.70;37.10;;;;;;483241;242;1208;-74
2022/11/11 07:38:24;;;;;;;;;;;23.80;36.80;;;;;;483464;246;1378;-74
2022/11/11 07:40:26;;;;;;;;;;;23.80;37.10;;;;;;483844;246;1165;-74
2022/11/11 07:42:27;;;;;;;;;;;23.90;36.40;;;;;;484025;246;1166;-74
2022/11/11 07:44:28;;;;;;;;;;;23.90;36.80;;;;;;483925;246;1232;-73
2022/11/11 07:46:30;;;;;;;;;;;24.00;36.30;;;;;;484022;246;1284;-74
2022/11/11 07:48:31;;;;;;;;;;;24.10;36.30;;;;;;483970;246;1204;-74
2022/11/11 07:50:32;;;;;;;;;;;24.00;36.20;;;;;;483833;246;2200;-74
2022/11/11 07:52:35;;;;;;;;;;;24.00;36.40;;;;;;483990;246;1135;-74
2022/11/11 07:54:35;;;;;;;;;;;24.00;36.10;;;;;;483913;246;1399;-74
2022/11/11 07:56:36;;;;;;;;;;;23.90;36.60;;;;;;483907;246;1191;-74
2022/11/11 07:58:37;;;;;;;;;;;23.90;36.60;;;;;;483895;246;1164;-74
2022/11/11 08:00:39;;;;;;;;;;;23.90;36.70;;;;;;483777;246;1252;-74
2022/11/11 08:02:40;;;;;;;;;;;23.80;36.30;;;;;;483818;246;1113;-74
2022/11/11 08:04:41;;;;;;;;;;;23.80;36.80;;;;;;483937;246;1088;-74
2022/11/11 08:06:43;;;;;;;;;;;23.80;36.50;;;;;;483635;246;1187;-74
2022/11/11 08:08:44;;;;;;;;;;;23.80;36.50;;;;;;483638;246;1112;-74
2022/11/11 08:10:45;;;;;;;;;;;23.80;36.70;;;;;;483675;246;2183;-74
2022/11/11 08:15:06;;;;;;;;;;;23.90;36.70;;;;;;483722;242;1308;-74
2022/11/11 08:17:07;;;;;;;;;;;23.90;36.20;;;;;;483814;246;1194;-74
2022/11/11 08:19:09;;;;;;;;;;;23.90;36.30;;;;;;483830;246;1180;-74
2022/11/11 08:21:10;;;;;;;;;;;23.90;36.30;;;;;;483748;246;1176;-74
2022/11/11 08:23:13;;;;;;;;;;;24.00;35.90;;;;;;483574;246;1209;-74
2022/11/11 08:25:13;;;;;;;;;;;24.00;35.90;;;;;;483668;246;1400;-74
2022/11/11 08:27:14;;;;;;;;;;;24.00;36.40;;;;;;483690;246;1219;-74
2022/11/11 08:29:16;;;;;;;;;;;24.00;36.00;;;;;;483856;246;1173;-74
2022/11/11 08:31:17;;;;;;;;;;;24.00;36.30;;;;;;483756;246;2188;-74
2022/11/11 08:33:18;;;;;;;;;;;24.00;36.30;;;;;;483856;246;1297;-74
2022/11/11 08:35:20;;;;;;;;;;;23.90;36.30;;;;;;483770;246;1194;-74
2022/11/11 08:37:21;;;;;;;;;;;23.80;36.50;;;;;;483714;246;1351;-74
2022/11/11 08:39:22;;;;;;;;;;;23.80;36.20;;;;;;483525;246;1880;-74
2022/11/11 08:41:24;;;;;;;;;;;23.70;36.20;;;;;;483678;246;1211;-74
2022/11/11 08:43:25;;;;;;;;;;;23.70;36.20;;;;;;483216;246;1240;-74
2022/11/11 08:45:27;;;;;;;;;;;23.70;36.30;;;;;;483158;246;1212;-74
2022/11/11 08:47:28;;;;;;;;;;;23.60;36.20;;;;;;483843;242;1139;-74
2022/11/11 08:49:29;;;;;;;;;;;23.60;36.30;;;;;;483756;246;1183;-74
2022/11/11 08:51:30;;;;;;;;;;;23.60;36.40;;;;;;483817;246;2120;-74
2022/11/11 08:53:32;;;;;;;;;;;23.60;36.30;;;;;;483746;246;1138;-73
2022/11/11 08:55:33;;;;;;;;;;;23.70;36.20;;;;;;483795;246;1213;-73
2022/11/11 08:57:34;;;;;;;;;;;23.70;36.10;;;;;;483777;246;1240;-74
2022/11/11 08:59:36;;;;;;;;;;;23.70;36.10;;;;;;483758;246;1194;-74
2022/11/11 09:01:37;;;;;;;;;;;23.80;36.10;;;;;;483798;246;1162;-74
2022/11/11 09:03:40;;;;;;;;;;;23.90;36.00;;;;;;483686;246;1347;-74
2022/11/11 09:05:40;;;;;;;;;;;23.90;35.90;;;;;;483680;246;1408;-73
2022/11/11 09:07:41;;;;;;;;;;;24.00;35.90;;;;;;483848;246;1070;-73
2022/11/11 09:09:42;;;;;;;;;;;23.90;36.00;;;;;;483606;246;1277;-73
2022/11/11 09:11:44;;;;;;;;;;;23.90;36.00;;;;;;483583;246;1182;-73
2022/11/11 09:13:45;;;;;;;;;;;23.90;35.90;;;;;;483782;246;1197;-74
2022/11/11 09:15:46;;;;;;;;;;;23.90;36.00;;;;;;483602;246;1119;-74
2022/11/11 09:17:48;;;;;;;;;;;23.80;36.00;;;;;;483601;246;1101;-74
2022/11/11 09:19:49;;;;;;;;;;;23.80;36.10;;;;;;483524;246;1222;-74
2022/11/11 09:21:51;;;;;;;;;;;23.70;36.30;;;;;;483681;246;1082;-74
2022/11/11 09:23:52;;;;;;;;;;;23.70;36.10;;;;;;483619;246;1123;-74
2022/11/11 09:25:53;;;;;;;;;;;23.70;36.40;;;;;;483666;246;1151;-74
2022/11/11 09:27:55;;;;;;;;;;;23.60;36.30;;;;;;483439;246;1145;-73
2022/11/11 09:29:57;;;;;;;;;;;23.70;36.50;;;;;;483702;246;2191;-74
2022/11/11 09:31:58;;;;;;;;;;;23.60;36.60;;;;;;483706;246;1141;-74
2022/11/11 09:33:59;;;;;;;;;;;23.70;36.60;;;;;;483590;246;1434;-74
2022/11/11 09:36:01;;;;;;;;;;;23.70;36.60;;;;;;483700;246;1088;-74
2022/11/11 09:38:02;;;;;;;;;;;23.80;36.60;;;;;;483889;246;1142;-73
2022/11/11 09:40:03;;;;;;;;;;;23.80;36.40;;;;;;483587;246;1235;-74
2022/11/11 09:42:05;;;;;;;;;;;23.80;36.40;;;;;;482269;246;1361;-74
2022/11/11 09:44:06;;;;;;;;;;;23.90;36.30;;;;;;483750;246;1226;-74
2022/11/11 09:46:07;;;;;;;;;;;23.90;36.30;;;;;;483695;246;1286;-74
2022/11/11 09:48:09;;;;;;;;;;;23.90;36.30;;;;;;483690;246;1170;-74
2022/11/11 09:50:10;;;;;;;;;;;23.90;36.30;;;;;;483629;246;2152;-74
2022/11/11 09:52:11;;;;;;;;;;;23.90;36.80;;;;;;483542;246;1172;-74
2022/11/11 09:54:12;;;;;;;;;;;23.90;36.60;;;;;;483722;246;1192;-74
2022/11/11 09:56:14;;;;;;;;;;;23.80;36.60;;;;;;483846;246;1156;-74
2022/11/11 09:58:15;;;;;;;;;;;23.80;36.70;;;;;;483611;246;1179;-73
2022/11/11 10:00:17;;;;;;;;;;;23.80;37.10;;;;;;483931;246;1209;-74
2022/11/11 10:02:19;;;;;;;;;;;23.80;37.00;;;;;;483815;246;1302;-74
2022/11/11 10:04:20;;;;;;;;;;;23.80;36.90;;;;;;483933;246;1105;-74
2022/11/11 10:06:21;;;;;;;;;;;23.70;37.00;;;;;;484071;246;1137;-74
2022/11/11 10:08:23;;;;;;;;;;;23.70;37.00;;;;;;483903;246;1072;-74
2022/11/11 10:10:24;;;;;;;;;;;23.80;37.10;;;;;;483849;246;2180;-74
2022/11/11 10:12:26;;;;;;;;;;;23.70;37.00;;;;;;483882;246;1201;-74
2022/11/11 10:14:27;;;;;;;;;;;23.80;37.10;;;;;;483706;246;1885;-74
2022/11/11 10:16:28;;;;;;;;;;;23.80;37.10;;;;;;483783;246;1144;-74
2022/11/11 10:18:29;;;;;;;;;;;23.70;37.20;;;;;;483642;246;1141;-74
2022/11/11 10:20:31;;;;;;;;;;;23.70;37.30;;;;;;483676;246;1169;-74
2022/11/11 10:22:32;;;;;;;;;;;23.80;37.20;;;;;;483880;246;1104;-73
2022/11/11 10:24:33;;;;;;;;;;;23.90;36.90;;;;;;483732;246;1170;-73
2022/11/11 10:26:35;;;;;;;;;;;23.90;36.90;;;;;;483734;246;1420;-73
2022/11/11 10:28:36;;;;;;;;;;;24.10;36.70;;;;;;483715;246;1209;-74
2022/11/11 10:30:38;;;;;;;;;;;24.10;36.60;;;;;;483831;246;2196;-74
2022/11/11 10:32:39;;;;;;;;;;;24.10;36.50;;;;;;483833;246;1209;-74
2022/11/11 10:34:40;;;;;;;;;;;24.10;36.60;;;;;;483819;246;1199;-74
2022/11/11 10:36:42;;;;;;;;;;;24.10;36.70;;;;;;483882;246;1364;-73
2022/11/11 10:38:43;;;;;;;;;;;24.10;36.70;;;;;;483932;246;1196;-73
2022/11/11 10:40:44;;;;;;;;;;;24.00;36.80;;;;;;483906;246;1276;-74
2022/11/11 10:42:46;;;;;;;;;;;24.00;36.90;;;;;;483814;246;1132;-74
2022/11/11 10:44:47;;;;;;;;;;;23.90;37.00;;;;;;483783;246;1170;-74
2022/11/11 10:46:48;;;;;;;;;;;24.00;37.00;;;;;;483774;246;1195;-74
2022/11/11 10:48:50;;;;;;;;;;;23.90;37.00;;;;;;483584;246;1160;-74
2022/11/11 10:50:51;;;;;;;;;;;23.90;37.10;;;;;;483626;246;2183;-74
2022/11/11 10:52:52;;;;;;;;;;;23.90;37.20;;;;;;483747;246;1190;-73
2022/11/11 10:54:54;;;;;;;;;;;23.90;37.20;;;;;;483827;246;1318;-73
2022/11/11 10:56:55;;;;;;;;;;;23.90;37.20;;;;;;483711;242;1196;-73
2022/11/11 10:58:56;;;;;;;;;;;24.00;37.20;;;;;;483886;246;1261;-74
2022/11/11 11:00:58;;;;;;;;;;;24.00;37.20;;;;;;483719;246;1145;-74
2022/11/11 11:02:59;;;;;;;;;;;24.00;37.10;;;;;;483789;246;1091;-74
2022/11/11 11:05:01;;;;;;;;;;;24.10;37.10;;;;;;483436;246;1149;-74
2022/11/11 11:07:02;;;;;;;;;;;24.10;37.10;;;;;;483652;246;1156;-74
2022/11/11 11:09:03;;;;;;;;;;;24.10;37.00;;;;;;483808;246;1117;-74
2022/11/11 11:11:04;;;;;;;;;;;24.10;36.90;;;;;;483788;242;2196;-74
2022/11/11 11:13:06;;;;;;;;;;;24.10;37.00;;;;;;483867;246;1185;-74
2022/11/11 11:15:07;;;;;;;;;;;24.10;37.00;;;;;;483889;246;1189;-74
2022/11/11 11:17:09;;;;;;;;;;;24.00;37.20;;;;;;483875;246;1155;-74
2022/11/11 11:19:10;;;;;;;;;;;24.00;37.20;;;;;;483956;246;1170;-74
2022/11/11 11:21:11;;;;;;;;;;;24.00;37.30;;;;;;483847;246;1108;-74
2022/11/11 11:23:12;;;;;;;;;;;24.00;37.20;;;;;;483853;246;1199;-74
2022/11/11 11:25:14;;;;;;;;;;;23.90;37.50;;;;;;483740;246;1118;-74
2022/11/11 11:27:15;;;;;;;;;;;23.90;37.50;;;;;;484053;246;1163;-74
2022/11/11 11:29:16;;;;;;;;;;;23.80;37.70;;;;;;483875;246;1135;-74
2022/11/11 11:31:18;;;;;;;;;;;23.70;37.70;;;;;;484029;246;2212;-74
2022/11/11 11:33:19;;;;;;;;;;;23.80;37.70;;;;;;483942;246;1149;-74
2022/11/11 11:35:20;;;;;;;;;;;23.60;37.80;;;;;;483838;246;1150;-74
2022/11/11 11:37:22;;;;;;;;;;;23.40;38.20;;;;;;483848;246;1366;-74
2022/11/11 11:39:23;;;;;;;;;;;23.40;38.30;;;;;;483934;246;1160;-74
2022/11/11 11:41:24;;;;;;;;;;;23.40;38.40;;;;;;483869;246;1147;-74
2022/11/11 11:43:26;;;;;;;;;;;23.30;38.50;;;;;;483778;246;1237;-74
2022/11/11 11:45:28;;;;;;;;;;;23.40;38.50;;;;;;483910;246;1217;-74
2022/11/11 11:47:29;;;;;;;;;;;23.30;38.50;;;;;;483889;246;1126;-74
2022/11/11 11:49:30;;;;;;;;;;;23.40;38.40;;;;;;483951;246;1223;-74
2022/11/11 11:51:32;;;;;;;;;;;23.30;38.50;;;;;;483897;246;2248;-74
2022/11/11 11:53:33;;;;;;;;;;;23.40;38.50;;;;;;484022;246;1331;-74
2022/11/11 11:55:34;;;;;;;;;;;23.40;38.50;;;;;;483906;246;1089;-74
2022/11/11 11:57:36;;;;;;;;;;;23.40;38.40;;;;;;484022;246;1162;-74
2022/11/11 11:59:37;;;;;;;;;;;23.50;38.40;;;;;;483806;246;1164;-74
2022/11/11 12:01:38;;;;;;;;;;;23.50;38.40;;;;;;483712;246;1159;-74
2022/11/11 12:03:40;;;;;;;;;;;23.40;38.40;;;;;;483685;246;1171;-74
2022/11/11 12:05:41;;;;;;;;;;;23.40;38.40;;;;;;483906;246;1188;-74
2022/11/11 12:07:42;;;;;;;;;;;23.30;38.60;;;;;;483918;246;1083;-74
2022/11/11 12:09:44;;;;;;;;;;;23.40;38.70;;;;;;483764;246;1159;-74
2022/11/11 12:11:45;;;;;;;;;;;23.30;38.70;;;;;;483900;246;2180;-74
2022/11/11 12:13:46;;;;;;;;;;;23.20;38.90;;;;;;483680;246;1165;-74
2022/11/11 12:15:47;;;;;;;;;;;23.10;39.00;;;;;;483851;246;1216;-74
2022/11/11 12:17:49;;;;;;;;;;;23.20;39.00;;;;;;483913;246;1192;-74
2022/11/11 12:19:50;;;;;;;;;;;23.10;39.20;;;;;;483683;246;1130;-74
2022/11/11 12:21:52;;;;;;;;;;;23.10;39.10;;;;;;483972;246;1215;-74
2022/11/11 12:23:53;;;;;;;;;;;23.00;39.20;;;;;;483889;246;1194;-74
2022/11/11 12:25:54;;;;;;;;;;;23.00;39.50;;;;;;483880;246;1208;-74
2022/11/11 12:27:55;;;;;;;;;;;22.90;39.60;;;;;;483653;246;1200;-74
2022/11/11 12:29:57;;;;;;;;;;;22.90;39.70;;;;;;483732;246;1561;-74
2022/11/11 12:31:58;;;;;;;;;;;23.00;39.70;;;;;;483712;246;2140;-74
2022/11/11 12:33:59;;;;;;;;;;;22.90;39.60;;;;;;483811;246;1163;-74
2022/11/11 12:36:01;;;;;;;;;;;22.90;39.60;;;;;;483759;246;1162;-74
2022/11/11 12:38:02;;;;;;;;;;;23.00;39.70;;;;;;483901;246;1219;-73
2022/11/11 12:40:03;;;;;;;;;;;23.10;39.60;;;;;;483916;246;1206;-73
2022/11/11 12:42:05;;;;;;;;;;;23.10;39.40;;;;;;483848;246;1237;-73
2022/11/11 12:44:06;;;;;;;;;;;23.20;39.40;;;;;;483875;246;1154;-74
2022/11/11 12:46:07;;;;;;;;;;;23.20;39.30;;;;;;483939;246;1160;-74
2022/11/11 12:48:09;;;;;;;;;;;23.20;39.20;;;;;;483992;246;1164;-74
2022/11/11 12:50:10;;;;;;;;;;;23.40;39.20;;;;;;484066;246;1304;-74
2022/11/11 12:52:11;;;;;;;;;;;23.50;38.90;;;;;;483949;246;2188;-74
2022/11/11 12:54:13;;;;;;;;;;;23.60;38.80;;;;;;483915;246;1274;-74
2022/11/11 12:56:14;;;;;;;;;;;23.80;38.60;;;;;;483907;246;1187;-73
2022/11/11 12:58:15;;;;;;;;;;;23.90;38.30;;;;;;483984;246;1173;-73
2022/11/11 13:00:17;;;;;;;;;;;23.90;38.20;;;;;;483921;246;1071;-74
2022/11/11 13:02:18;;;;;;;;;;;23.90;38.40;;;;;;483807;246;1084;-74
2022/11/11 13:04:19;;;;;;;;;;;23.90;38.30;;;;;;484007;246;1140;-74
2022/11/11 13:06:21;;;;;;;;;;;23.80;38.30;;;;;;483753;246;1193;-74
2022/11/11 13:08:22;;;;;;;;;;;23.70;38.50;;;;;;484008;246;1240;-73
2022/11/11 13:10:24;;;;;;;;;;;23.80;38.50;;;;;;483994;246;1141;-74
2022/11/11 13:12:25;;;;;;;;;;;23.70;38.60;;;;;;483769;246;2200;-74
2022/11/11 13:14:26;;;;;;;;;;;23.80;38.60;;;;;;483704;246;1158;-74